sensor_id;sensor_type;location;lat;lon;timestamp;P1;durP1;ratioP1;P2;durP2;ratioP2
5718;SDS011;2884;47.734;9.244;2023-10-08T00:00:25;6.13;;;4.73;;
5718;SDS011;2884;47.734;9.244;2023-10-08T00:03:12;6.30;;;5.13;;
5718;SDS011;2884;47.734;9.244;2023-10-08T00:05:39;6.10;;;5.53;;
5718;SDS011;2884;47.734;9.244;2023-10-08T00:08:07;5.33;;;4.93;;
5718;SDS011;2884;47.734;9.244;2023-10-08T00:10:37;5.77;;;5.27;;
5718;SDS011;2884;47.734;9.244;2023-10-08T00:13:05;5.50;;;5.10;;
5718;SDS011;2884;47.734;9.244;2023-10-08T00:15:35;5.90;;;5.30;;
5718;SDS011;2884;47.734;9.244;2023-10-08T00:18:04;5.47;;;4.97;;
5718;SDS011;2884;47.734;9.244;2023-10-08T00:20:37;6.17;;;5.30;;
5718;SDS011;2884;47.734;9.244;2023-10-08T00:23:29;6.63;;;4.90;;
5718;SDS011;2884;47.734;9.244;2023-10-08T00:25:55;6.20;;;5.60;;
5718;SDS011;2884;47.734;9.244;2023-10-08T00:28:23;5.03;;;4.63;;
5718;SDS011;2884;47.734;9.244;2023-10-08T00:30:49;5.20;;;4.80;;
5718;SDS011;2884;47.734;9.244;2023-10-08T00:33:15;7.97;;;5.53;;
5718;SDS011;2884;47.734;9.244;2023-10-08T00:35:42;6.23;;;5.03;;
5718;SDS011;2884;47.734;9.244;2023-10-08T00:38:10;5.17;;;4.70;;
5718;SDS011;2884;47.734;9.244;2023-10-08T00:40:46;5.30;;;4.90;;
5718;SDS011;2884;47.734;9.244;2023-10-08T00:43:29;7.13;;;5.73;;
5718;SDS011;2884;47.734;9.244;2023-10-08T00:45:59;6.03;;;5.30;;
5718;SDS011;2884;47.734;9.244;2023-10-08T00:48:28;6.53;;;5.60;;
5718;SDS011;2884;47.734;9.244;2023-10-08T00:51:02;8.60;;;5.20;;
5718;SDS011;2884;47.734;9.244;2023-10-08T00:53:57;4.90;;;4.60;;
5718;SDS011;2884;47.734;9.244;2023-10-08T00:56:36;6.23;;;5.03;;
5718;SDS011;2884;47.734;9.244;2023-10-08T00:59:24;6.00;;;5.07;;
5718;SDS011;2884;47.734;9.244;2023-10-08T01:01:51;4.67;;;4.37;;
5718;SDS011;2884;47.734;9.244;2023-10-08T01:04:18;4.80;;;4.40;;
5718;SDS011;2884;47.734;9.244;2023-10-08T01:06:55;4.97;;;4.47;;
5718;SDS011;2884;47.734;9.244;2023-10-08T01:09:25;5.07;;;4.67;;
5718;SDS011;2884;47.734;9.244;2023-10-08T01:14:45;5.43;;;5.03;;
5718;SDS011;2884;47.734;9.244;2023-10-08T01:17:12;4.87;;;4.47;;
5718;SDS011;2884;47.734;9.244;2023-10-08T01:19:40;6.27;;;4.83;;
5718;SDS011;2884;47.734;9.244;2023-10-08T01:22:10;4.73;;;4.40;;
5718;SDS011;2884;47.734;9.244;2023-10-08T01:24:48;5.60;;;4.63;;
5718;SDS011;2884;47.734;9.244;2023-10-08T01:27:17;5.80;;;4.17;;
5718;SDS011;2884;47.734;9.244;2023-10-08T01:29:51;5.20;;;4.70;;
5718;SDS011;2884;47.734;9.244;2023-10-08T01:32:17;5.00;;;4.50;;
5718;SDS011;2884;47.734;9.244;2023-10-08T01:34:44;4.93;;;4.43;;
5718;SDS011;2884;47.734;9.244;2023-10-08T01:37:19;7.77;;;4.70;;
5718;SDS011;2884;47.734;9.244;2023-10-08T01:39:46;5.30;;;4.90;;
5718;SDS011;2884;47.734;9.244;2023-10-08T01:42:13;4.77;;;4.40;;
5718;SDS011;2884;47.734;9.244;2023-10-08T01:44:46;5.00;;;4.50;;
5718;SDS011;2884;47.734;9.244;2023-10-08T01:47:14;4.40;;;4.03;;
5718;SDS011;2884;47.734;9.244;2023-10-08T01:49:41;6.07;;;4.70;;
5718;SDS011;2884;47.734;9.244;2023-10-08T01:52:09;8.27;;;4.13;;
5718;SDS011;2884;47.734;9.244;2023-10-08T01:54:43;4.43;;;4.03;;
5718;SDS011;2884;47.734;9.244;2023-10-08T01:57:09;4.53;;;4.23;;
5718;SDS011;2884;47.734;9.244;2023-10-08T01:59:35;5.40;;;3.97;;
5718;SDS011;2884;47.734;9.244;2023-10-08T02:02:03;4.13;;;3.73;;
5718;SDS011;2884;47.734;9.244;2023-10-08T02:04:31;4.97;;;4.57;;
5718;SDS011;2884;47.734;9.244;2023-10-08T02:06:58;6.83;;;4.40;;
5718;SDS011;2884;47.734;9.244;2023-10-08T02:09:25;4.97;;;4.57;;
5718;SDS011;2884;47.734;9.244;2023-10-08T02:11:51;5.03;;;4.50;;
5718;SDS011;2884;47.734;9.244;2023-10-08T02:14:19;5.17;;;4.53;;
5718;SDS011;2884;47.734;9.244;2023-10-08T02:16:46;5.13;;;4.70;;
5718;SDS011;2884;47.734;9.244;2023-10-08T02:19:12;5.10;;;4.77;;
5718;SDS011;2884;47.734;9.244;2023-10-08T02:21:39;5.60;;;4.90;;
5718;SDS011;2884;47.734;9.244;2023-10-08T02:24:05;4.50;;;4.20;;
5718;SDS011;2884;47.734;9.244;2023-10-08T02:26:32;4.50;;;4.20;;
5718;SDS011;2884;47.734;9.244;2023-10-08T02:29:03;4.57;;;4.17;;
5718;SDS011;2884;47.734;9.244;2023-10-08T02:31:39;4.60;;;4.20;;
5718;SDS011;2884;47.734;9.244;2023-10-08T02:34:08;4.90;;;4.40;;
5718;SDS011;2884;47.734;9.244;2023-10-08T02:36:34;5.13;;;4.70;;
5718;SDS011;2884;47.734;9.244;2023-10-08T02:39:02;5.43;;;4.47;;
5718;SDS011;2884;47.734;9.244;2023-10-08T02:42:02;5.57;;;4.73;;
5718;SDS011;2884;47.734;9.244;2023-10-08T02:44:28;5.73;;;5.10;;
5718;SDS011;2884;47.734;9.244;2023-10-08T02:46:54;4.67;;;4.37;;
5718;SDS011;2884;47.734;9.244;2023-10-08T02:49:20;4.70;;;4.30;;
5718;SDS011;2884;47.734;9.244;2023-10-08T02:51:48;5.67;;;4.50;;
5718;SDS011;2884;47.734;9.244;2023-10-08T02:54:16;5.00;;;4.50;;
5718;SDS011;2884;47.734;9.244;2023-10-08T02:56:46;4.33;;;4.13;;
5718;SDS011;2884;47.734;9.244;2023-10-08T02:59:16;8.60;;;4.70;;
5718;SDS011;2884;47.734;9.244;2023-10-08T03:01:42;4.73;;;4.33;;
5718;SDS011;2884;47.734;9.244;2023-10-08T03:04:08;4.50;;;4.07;;
5718;SDS011;2884;47.734;9.244;2023-10-08T03:06:43;4.73;;;4.30;;
5718;SDS011;2884;47.734;9.244;2023-10-08T03:09:15;5.00;;;4.60;;
5718;SDS011;2884;47.734;9.244;2023-10-08T03:11:56;5.20;;;4.70;;
5718;SDS011;2884;47.734;9.244;2023-10-08T03:14:23;4.57;;;4.17;;
5718;SDS011;2884;47.734;9.244;2023-10-08T03:16:49;9.00;;;4.77;;
5718;SDS011;2884;47.734;9.244;2023-10-08T03:19:21;5.17;;;4.67;;
5718;SDS011;2884;47.734;9.244;2023-10-08T03:21:48;4.90;;;4.50;;
5718;SDS011;2884;47.734;9.244;2023-10-08T03:24:16;5.23;;;4.83;;
5718;SDS011;2884;47.734;9.244;2023-10-08T03:27:00;4.70;;;4.40;;
5718;SDS011;2884;47.734;9.244;2023-10-08T03:29:38;4.80;;;4.40;;
5718;SDS011;2884;47.734;9.244;2023-10-08T03:32:11;4.80;;;4.30;;
5718;SDS011;2884;47.734;9.244;2023-10-08T03:34:46;5.00;;;4.60;;
5718;SDS011;2884;47.734;9.244;2023-10-08T03:37:17;7.70;;;4.90;;
5718;SDS011;2884;47.734;9.244;2023-10-08T03:39:48;4.27;;;3.90;;
5718;SDS011;2884;47.734;9.244;2023-10-08T03:42:20;5.00;;;4.60;;
5718;SDS011;2884;47.734;9.244;2023-10-08T03:44:52;5.20;;;4.80;;
5718;SDS011;2884;47.734;9.244;2023-10-08T03:47:20;5.43;;;4.80;;
5718;SDS011;2884;47.734;9.244;2023-10-08T03:49:48;6.50;;;5.73;;
5718;SDS011;2884;47.734;9.244;2023-10-08T03:52:17;5.57;;;5.00;;
5718;SDS011;2884;47.734;9.244;2023-10-08T03:54:49;5.53;;;5.03;;
5718;SDS011;2884;47.734;9.244;2023-10-08T03:57:28;6.50;;;5.00;;
5718;SDS011;2884;47.734;9.244;2023-10-08T04:00:07;4.97;;;4.57;;
5718;SDS011;2884;47.734;9.244;2023-10-08T04:02:38;5.13;;;4.63;;
5718;SDS011;2884;47.734;9.244;2023-10-08T04:05:11;4.90;;;4.53;;
5718;SDS011;2884;47.734;9.244;2023-10-08T04:07:47;4.93;;;4.53;;
5718;SDS011;2884;47.734;9.244;2023-10-08T04:10:24;6.47;;;4.90;;
5718;SDS011;2884;47.734;9.244;2023-10-08T04:13:24;4.20;;;3.90;;
5718;SDS011;2884;47.734;9.244;2023-10-08T04:15:50;4.57;;;4.27;;
5718;SDS011;2884;47.734;9.244;2023-10-08T04:18:15;4.03;;;3.73;;
5718;SDS011;2884;47.734;9.244;2023-10-08T04:20:41;4.80;;;4.40;;
5718;SDS011;2884;47.734;9.244;2023-10-08T04:23:26;3.70;;;3.40;;
5718;SDS011;2884;47.734;9.244;2023-10-08T04:25:52;5.10;;;4.70;;
5718;SDS011;2884;47.734;9.244;2023-10-08T04:28:22;5.67;;;4.80;;
5718;SDS011;2884;47.734;9.244;2023-10-08T04:30:51;4.10;;;3.80;;
5718;SDS011;2884;47.734;9.244;2023-10-08T04:33:17;3.80;;;3.60;;
5718;SDS011;2884;47.734;9.244;2023-10-08T04:35:45;4.17;;;3.87;;
5718;SDS011;2884;47.734;9.244;2023-10-08T04:38:17;5.13;;;4.57;;
5718;SDS011;2884;47.734;9.244;2023-10-08T04:40:48;8.97;;;4.70;;
5718;SDS011;2884;47.734;9.244;2023-10-08T04:43:16;4.90;;;4.50;;
5718;SDS011;2884;47.734;9.244;2023-10-08T04:45:57;4.50;;;4.20;;
5718;SDS011;2884;47.734;9.244;2023-10-08T04:48:23;8.60;;;5.30;;
5718;SDS011;2884;47.734;9.244;2023-10-08T04:50:50;5.13;;;4.70;;
5718;SDS011;2884;47.734;9.244;2023-10-08T04:53:28;5.03;;;4.53;;
5718;SDS011;2884;47.734;9.244;2023-10-08T04:56:02;5.10;;;4.70;;
5718;SDS011;2884;47.734;9.244;2023-10-08T04:58:38;4.90;;;4.50;;
5718;SDS011;2884;47.734;9.244;2023-10-08T05:01:06;4.30;;;3.90;;
5718;SDS011;2884;47.734;9.244;2023-10-08T05:03:57;5.00;;;4.53;;
5718;SDS011;2884;47.734;9.244;2023-10-08T05:06:26;4.40;;;4.10;;
5718;SDS011;2884;47.734;9.244;2023-10-08T05:09:05;4.83;;;4.43;;
5718;SDS011;2884;47.734;9.244;2023-10-08T05:11:51;4.20;;;3.90;;
5718;SDS011;2884;47.734;9.244;2023-10-08T05:14:18;4.97;;;4.50;;
5718;SDS011;2884;47.734;9.244;2023-10-08T05:17:02;5.10;;;4.50;;
5718;SDS011;2884;47.734;9.244;2023-10-08T05:19:40;4.73;;;4.33;;
5718;SDS011;2884;47.734;9.244;2023-10-08T05:22:10;6.90;;;4.50;;
5718;SDS011;2884;47.734;9.244;2023-10-08T05:24:48;6.80;;;4.70;;
5718;SDS011;2884;47.734;9.244;2023-10-08T05:27:39;4.70;;;4.23;;
5718;SDS011;2884;47.734;9.244;2023-10-08T05:30:15;5.47;;;4.70;;
5718;SDS011;2884;47.734;9.244;2023-10-08T05:32:42;5.67;;;5.17;;
5718;SDS011;2884;47.734;9.244;2023-10-08T05:35:42;8.53;;;4.80;;
5718;SDS011;2884;47.734;9.244;2023-10-08T05:38:12;6.40;;;5.53;;
5718;SDS011;2884;47.734;9.244;2023-10-08T05:40:48;5.67;;;5.17;;
5718;SDS011;2884;47.734;9.244;2023-10-08T05:46:11;5.67;;;5.17;;
5718;SDS011;2884;47.734;9.244;2023-10-08T05:48:50;5.57;;;5.17;;
5718;SDS011;2884;47.734;9.244;2023-10-08T05:51:41;5.10;;;4.70;;
5718;SDS011;2884;47.734;9.244;2023-10-08T05:54:20;5.80;;;5.10;;
5718;SDS011;2884;47.734;9.244;2023-10-08T05:57:05;9.17;;;5.20;;
5718;SDS011;2884;47.734;9.244;2023-10-08T05:59:32;5.27;;;4.77;;
5718;SDS011;2884;47.734;9.244;2023-10-08T06:02:24;5.70;;;5.13;;
5718;SDS011;2884;47.734;9.244;2023-10-08T06:05:05;5.50;;;5.03;;
5718;SDS011;2884;47.734;9.244;2023-10-08T06:07:46;5.53;;;5.13;;
5718;SDS011;2884;47.734;9.244;2023-10-08T06:10:19;5.57;;;5.07;;
5718;SDS011;2884;47.734;9.244;2023-10-08T06:12:57;6.17;;;5.57;;
5718;SDS011;2884;47.734;9.244;2023-10-08T06:18:24;6.10;;;5.27;;
5718;SDS011;2884;47.734;9.244;2023-10-08T06:20:54;6.50;;;5.83;;
5718;SDS011;2884;47.734;9.244;2023-10-08T06:23:20;6.03;;;5.53;;
5718;SDS011;2884;47.734;9.244;2023-10-08T06:25:48;6.83;;;6.23;;
5718;SDS011;2884;47.734;9.244;2023-10-08T06:28:22;8.50;;;6.30;;
5718;SDS011;2884;47.734;9.244;2023-10-08T06:30:51;7.00;;;5.83;;
5718;SDS011;2884;47.734;9.244;2023-10-08T06:33:24;9.13;;;6.87;;
5718;SDS011;2884;47.734;9.244;2023-10-08T06:35:51;7.30;;;6.23;;
5718;SDS011;2884;47.734;9.244;2023-10-08T06:38:31;10.23;;;6.67;;
5718;SDS011;2884;47.734;9.244;2023-10-08T06:41:01;7.63;;;6.67;;
5718;SDS011;2884;47.734;9.244;2023-10-08T06:43:43;8.73;;;6.90;;
5718;SDS011;2884;47.734;9.244;2023-10-08T06:46:27;8.40;;;7.37;;
5718;SDS011;2884;47.734;9.244;2023-10-08T06:49:03;10.63;;;8.07;;
5718;SDS011;2884;47.734;9.244;2023-10-08T06:51:36;7.23;;;6.17;;
5718;SDS011;2884;47.734;9.244;2023-10-08T06:54:02;11.10;;;7.17;;
5718;SDS011;2884;47.734;9.244;2023-10-08T06:56:28;6.60;;;5.90;;
5718;SDS011;2884;47.734;9.244;2023-10-08T06:58:53;5.80;;;5.10;;
5718;SDS011;2884;47.734;9.244;2023-10-08T07:01:19;5.90;;;5.40;;
5718;SDS011;2884;47.734;9.244;2023-10-08T07:03:53;7.77;;;5.13;;
5718;SDS011;2884;47.734;9.244;2023-10-08T07:06:29;6.63;;;6.00;;
5718;SDS011;2884;47.734;9.244;2023-10-08T07:09:02;7.40;;;5.73;;
5718;SDS011;2884;47.734;9.244;2023-10-08T07:11:31;8.10;;;5.50;;
5718;SDS011;2884;47.734;9.244;2023-10-08T07:14:04;9.10;;;6.60;;
5718;SDS011;2884;47.734;9.244;2023-10-08T07:16:33;10.30;;;6.63;;
5718;SDS011;2884;47.734;9.244;2023-10-08T07:18:59;8.03;;;6.40;;
5718;SDS011;2884;47.734;9.244;2023-10-08T07:21:45;9.33;;;6.30;;
5718;SDS011;2884;47.734;9.244;2023-10-08T07:24:12;8.33;;;6.37;;
5718;SDS011;2884;47.734;9.244;2023-10-08T07:26:42;8.63;;;6.50;;
5718;SDS011;2884;47.734;9.244;2023-10-08T07:29:12;9.80;;;6.83;;
5718;SDS011;2884;47.734;9.244;2023-10-08T07:31:45;10.33;;;6.67;;
5718;SDS011;2884;47.734;9.244;2023-10-08T07:34:15;8.60;;;7.03;;
5718;SDS011;2884;47.734;9.244;2023-10-08T07:36:43;8.60;;;7.40;;
5718;SDS011;2884;47.734;9.244;2023-10-08T07:39:20;11.63;;;6.70;;
5718;SDS011;2884;47.734;9.244;2023-10-08T07:42:05;12.50;;;8.27;;
5718;SDS011;2884;47.734;9.244;2023-10-08T07:44:31;9.67;;;6.50;;
5718;SDS011;2884;47.734;9.244;2023-10-08T07:46:57;13.30;;;7.20;;
5718;SDS011;2884;47.734;9.244;2023-10-08T07:49:23;8.10;;;6.87;;
5718;SDS011;2884;47.734;9.244;2023-10-08T07:51:51;10.93;;;7.40;;
5718;SDS011;2884;47.734;9.244;2023-10-08T07:54:20;10.90;;;7.53;;
5718;SDS011;2884;47.734;9.244;2023-10-08T07:56:48;10.83;;;7.67;;
5718;SDS011;2884;47.734;9.244;2023-10-08T07:59:14;11.27;;;8.07;;
5718;SDS011;2884;47.734;9.244;2023-10-08T08:01:41;10.10;;;6.90;;
5718;SDS011;2884;47.734;9.244;2023-10-08T08:04:09;11.63;;;7.40;;
5718;SDS011;2884;47.734;9.244;2023-10-08T08:06:37;9.33;;;7.50;;
5718;SDS011;2884;47.734;9.244;2023-10-08T08:09:03;11.13;;;8.30;;
5718;SDS011;2884;47.734;9.244;2023-10-08T08:11:43;9.23;;;7.03;;
5718;SDS011;2884;47.734;9.244;2023-10-08T08:14:11;9.47;;;6.90;;
5718;SDS011;2884;47.734;9.244;2023-10-08T08:16:37;11.23;;;7.93;;
5718;SDS011;2884;47.734;9.244;2023-10-08T08:19:03;8.97;;;6.67;;
5718;SDS011;2884;47.734;9.244;2023-10-08T08:21:28;13.07;;;7.97;;
5718;SDS011;2884;47.734;9.244;2023-10-08T08:23:55;10.30;;;7.30;;
5718;SDS011;2884;47.734;9.244;2023-10-08T08:26:30;10.60;;;6.70;;
5718;SDS011;2884;47.734;9.244;2023-10-08T08:29:07;10.70;;;7.80;;
5718;SDS011;2884;47.734;9.244;2023-10-08T08:31:34;14.27;;;7.90;;
5718;SDS011;2884;47.734;9.244;2023-10-08T08:34:01;10.10;;;8.00;;
5718;SDS011;2884;47.734;9.244;2023-10-08T08:36:39;11.70;;;6.67;;
5718;SDS011;2884;47.734;9.244;2023-10-08T08:39:11;12.43;;;7.37;;
5718;SDS011;2884;47.734;9.244;2023-10-08T08:41:42;15.53;;;7.47;;
5718;SDS011;2884;47.734;9.244;2023-10-08T08:44:08;11.47;;;8.37;;
5718;SDS011;2884;47.734;9.244;2023-10-08T08:46:35;11.50;;;8.33;;
5718;SDS011;2884;47.734;9.244;2023-10-08T08:49:06;10.90;;;7.43;;
5718;SDS011;2884;47.734;9.244;2023-10-08T08:51:37;11.73;;;8.40;;
5718;SDS011;2884;47.734;9.244;2023-10-08T08:54:03;9.23;;;6.80;;
5718;SDS011;2884;47.734;9.244;2023-10-08T08:56:33;14.17;;;6.87;;
5718;SDS011;2884;47.734;9.244;2023-10-08T08:59:07;11.57;;;7.50;;
5718;SDS011;2884;47.734;9.244;2023-10-08T09:01:38;11.17;;;7.90;;
5718;SDS011;2884;47.734;9.244;2023-10-08T09:04:05;13.00;;;7.73;;
5718;SDS011;2884;47.734;9.244;2023-10-08T09:06:34;17.30;;;6.73;;
5718;SDS011;2884;47.734;9.244;2023-10-08T09:09:06;11.37;;;7.57;;
5718;SDS011;2884;47.734;9.244;2023-10-08T09:11:52;13.27;;;7.30;;
5718;SDS011;2884;47.734;9.244;2023-10-08T09:14:24;13.03;;;7.50;;
5718;SDS011;2884;47.734;9.244;2023-10-08T09:16:50;12.17;;;7.10;;
5718;SDS011;2884;47.734;9.244;2023-10-08T09:19:21;12.33;;;7.90;;
5718;SDS011;2884;47.734;9.244;2023-10-08T09:24:35;9.07;;;5.97;;
5718;SDS011;2884;47.734;9.244;2023-10-08T09:27:11;10.30;;;6.37;;
5718;SDS011;2884;47.734;9.244;2023-10-08T09:29:39;9.63;;;6.70;;
5718;SDS011;2884;47.734;9.244;2023-10-08T09:32:08;11.70;;;5.83;;
5718;SDS011;2884;47.734;9.244;2023-10-08T09:34:35;10.33;;;6.30;;
5718;SDS011;2884;47.734;9.244;2023-10-08T09:37:04;10.83;;;6.00;;
5718;SDS011;2884;47.734;9.244;2023-10-08T09:39:30;10.60;;;6.27;;
5718;SDS011;2884;47.734;9.244;2023-10-08T09:41:59;11.77;;;5.90;;
5718;SDS011;2884;47.734;9.244;2023-10-08T09:44:28;9.17;;;5.47;;
5718;SDS011;2884;47.734;9.244;2023-10-08T09:46:57;11.37;;;6.07;;
5718;SDS011;2884;47.734;9.244;2023-10-08T09:52:29;9.90;;;5.40;;
5718;SDS011;2884;47.734;9.244;2023-10-08T09:55:04;12.50;;;6.60;;
5718;SDS011;2884;47.734;9.244;2023-10-08T09:57:35;11.17;;;6.57;;
5718;SDS011;2884;47.734;9.244;2023-10-08T10:00:02;14.37;;;5.40;;
5718;SDS011;2884;47.734;9.244;2023-10-08T10:02:30;10.53;;;5.90;;
5718;SDS011;2884;47.734;9.244;2023-10-08T10:04:56;9.53;;;5.80;;
5718;SDS011;2884;47.734;9.244;2023-10-08T10:07:22;9.57;;;5.70;;
5718;SDS011;2884;47.734;9.244;2023-10-08T10:09:50;8.57;;;5.10;;
5718;SDS011;2884;47.734;9.244;2023-10-08T10:12:20;12.40;;;5.20;;
5718;SDS011;2884;47.734;9.244;2023-10-08T10:14:51;6.70;;;5.67;;
5718;SDS011;2884;47.734;9.244;2023-10-08T10:17:30;14.23;;;5.50;;
5718;SDS011;2884;47.734;9.244;2023-10-08T10:19:55;8.50;;;5.27;;
5718;SDS011;2884;47.734;9.244;2023-10-08T10:22:34;10.60;;;5.70;;
5718;SDS011;2884;47.734;9.244;2023-10-08T10:25:03;9.00;;;4.90;;
5718;SDS011;2884;47.734;9.244;2023-10-08T10:28:25;15.60;;;6.40;;
5718;SDS011;2884;47.734;9.244;2023-10-08T10:30:25;17.70;;;6.20;;
5718;SDS011;2884;47.734;9.244;2023-10-08T10:32:53;12.00;;;6.03;;
5718;SDS011;2884;47.734;9.244;2023-10-08T10:35:19;11.70;;;4.83;;
5718;SDS011;2884;47.734;9.244;2023-10-08T10:37:45;9.97;;;5.40;;
5718;SDS011;2884;47.734;9.244;2023-10-08T10:40:23;8.10;;;4.90;;
5718;SDS011;2884;47.734;9.244;2023-10-08T10:43:04;10.20;;;5.40;;
5718;SDS011;2884;47.734;9.244;2023-10-08T10:45:32;9.03;;;5.47;;
5718;SDS011;2884;47.734;9.244;2023-10-08T10:48:09;10.20;;;5.07;;
5718;SDS011;2884;47.734;9.244;2023-10-08T10:50:44;8.73;;;5.37;;
5718;SDS011;2884;47.734;9.244;2023-10-08T10:53:33;15.70;;;5.30;;
5718;SDS011;2884;47.734;9.244;2023-10-08T10:56:23;14.40;;;5.10;;
5718;SDS011;2884;47.734;9.244;2023-10-08T10:59:02;10.97;;;5.37;;
5718;SDS011;2884;47.734;9.244;2023-10-08T11:01:40;9.07;;;4.50;;
5718;SDS011;2884;47.734;9.244;2023-10-08T11:04:12;10.87;;;5.47;;
5718;SDS011;2884;47.734;9.244;2023-10-08T11:06:44;9.87;;;5.93;;
5718;SDS011;2884;47.734;9.244;2023-10-08T11:09:11;10.67;;;5.20;;
5718;SDS011;2884;47.734;9.244;2023-10-08T11:11:44;11.63;;;5.50;;
5718;SDS011;2884;47.734;9.244;2023-10-08T11:14:13;15.03;;;6.20;;
5718;SDS011;2884;47.734;9.244;2023-10-08T11:16:47;11.13;;;5.20;;
5718;SDS011;2884;47.734;9.244;2023-10-08T11:19:13;8.83;;;5.20;;
5718;SDS011;2884;47.734;9.244;2023-10-08T11:21:53;14.93;;;5.43;;
5718;SDS011;2884;47.734;9.244;2023-10-08T11:24:29;9.53;;;5.07;;
5718;SDS011;2884;47.734;9.244;2023-10-08T11:26:58;11.67;;;5.20;;
5718;SDS011;2884;47.734;9.244;2023-10-08T11:29:43;20.00;;;6.07;;
5718;SDS011;2884;47.734;9.244;2023-10-08T11:32:11;10.00;;;5.53;;
5718;SDS011;2884;47.734;9.244;2023-10-08T11:34:38;11.83;;;5.30;;
5718;SDS011;2884;47.734;9.244;2023-10-08T11:37:07;17.00;;;5.33;;
5718;SDS011;2884;47.734;9.244;2023-10-08T11:39:45;12.30;;;5.10;;
5718;SDS011;2884;47.734;9.244;2023-10-08T11:42:11;8.07;;;4.80;;
5718;SDS011;2884;47.734;9.244;2023-10-08T11:45:09;13.07;;;5.70;;
5718;SDS011;2884;47.734;9.244;2023-10-08T11:47:55;14.07;;;5.70;;
5718;SDS011;2884;47.734;9.244;2023-10-08T11:50:25;14.30;;;5.63;;
5718;SDS011;2884;47.734;9.244;2023-10-08T11:53:02;14.20;;;6.17;;
5718;SDS011;2884;47.734;9.244;2023-10-08T11:55:29;10.37;;;5.37;;
5718;SDS011;2884;47.734;9.244;2023-10-08T11:57:55;13.13;;;5.87;;
5718;SDS011;2884;47.734;9.244;2023-10-08T12:00:22;12.43;;;5.80;;
5718;SDS011;2884;47.734;9.244;2023-10-08T12:02:50;9.90;;;5.83;;
5718;SDS011;2884;47.734;9.244;2023-10-08T12:05:19;22.27;;;5.57;;
5718;SDS011;2884;47.734;9.244;2023-10-08T12:07:46;15.37;;;5.90;;
5718;SDS011;2884;47.734;9.244;2023-10-08T12:10:12;8.33;;;5.03;;
5718;SDS011;2884;47.734;9.244;2023-10-08T12:12:39;11.10;;;5.47;;
5718;SDS011;2884;47.734;9.244;2023-10-08T12:15:06;10.63;;;5.53;;
5718;SDS011;2884;47.734;9.244;2023-10-08T12:17:34;16.87;;;5.50;;
5718;SDS011;2884;47.734;9.244;2023-10-08T12:20:07;7.43;;;4.67;;
5718;SDS011;2884;47.734;9.244;2023-10-08T12:22:49;9.50;;;5.40;;
5718;SDS011;2884;47.734;9.244;2023-10-08T12:25:15;10.10;;;4.83;;
5718;SDS011;2884;47.734;9.244;2023-10-08T12:27:40;11.53;;;5.13;;
5718;SDS011;2884;47.734;9.244;2023-10-08T12:30:06;9.40;;;5.70;;
5718;SDS011;2884;47.734;9.244;2023-10-08T12:32:36;15.47;;;5.90;;
5718;SDS011;2884;47.734;9.244;2023-10-08T12:35:08;13.03;;;6.60;;
5718;SDS011;2884;47.734;9.244;2023-10-08T12:37:40;13.90;;;6.03;;
5718;SDS011;2884;47.734;9.244;2023-10-08T12:40:09;9.50;;;5.20;;
5718;SDS011;2884;47.734;9.244;2023-10-08T12:42:48;12.67;;;5.33;;
5718;SDS011;2884;47.734;9.244;2023-10-08T12:45:15;9.20;;;5.50;;
5718;SDS011;2884;47.734;9.244;2023-10-08T12:47:49;16.77;;;4.97;;
5718;SDS011;2884;47.734;9.244;2023-10-08T12:50:19;9.53;;;5.00;;
5718;SDS011;2884;47.734;9.244;2023-10-08T12:53:09;8.57;;;5.43;;
5718;SDS011;2884;47.734;9.244;2023-10-08T12:55:37;9.00;;;4.30;;
5718;SDS011;2884;47.734;9.244;2023-10-08T12:58:07;12.27;;;5.37;;
5718;SDS011;2884;47.734;9.244;2023-10-08T13:00:36;8.53;;;4.83;;
5718;SDS011;2884;47.734;9.244;2023-10-08T13:03:08;8.20;;;5.23;;
5718;SDS011;2884;47.734;9.244;2023-10-08T13:05:43;12.50;;;5.17;;
5718;SDS011;2884;47.734;9.244;2023-10-08T13:08:13;10.07;;;5.37;;
5718;SDS011;2884;47.734;9.244;2023-10-08T13:10:39;12.23;;;4.87;;
5718;SDS011;2884;47.734;9.244;2023-10-08T13:13:09;9.90;;;5.27;;
5718;SDS011;2884;47.734;9.244;2023-10-08T13:15:36;9.47;;;5.13;;
5718;SDS011;2884;47.734;9.244;2023-10-08T13:18:02;11.40;;;5.30;;
5718;SDS011;2884;47.734;9.244;2023-10-08T13:20:30;14.10;;;5.90;;
5718;SDS011;2884;47.734;9.244;2023-10-08T13:23:00;11.93;;;6.00;;
5718;SDS011;2884;47.734;9.244;2023-10-08T13:25:26;12.63;;;5.60;;
5718;SDS011;2884;47.734;9.244;2023-10-08T13:27:52;10.33;;;5.40;;
5718;SDS011;2884;47.734;9.244;2023-10-08T13:30:17;14.90;;;5.67;;
5718;SDS011;2884;47.734;9.244;2023-10-08T13:32:43;11.93;;;5.47;;
5718;SDS011;2884;47.734;9.244;2023-10-08T13:35:08;10.37;;;5.50;;
5718;SDS011;2884;47.734;9.244;2023-10-08T13:37:36;11.73;;;5.20;;
5718;SDS011;2884;47.734;9.244;2023-10-08T13:40:02;9.73;;;5.23;;
5718;SDS011;2884;47.734;9.244;2023-10-08T13:42:28;11.27;;;5.50;;
5718;SDS011;2884;47.734;9.244;2023-10-08T13:44:57;10.90;;;5.33;;
5718;SDS011;2884;47.734;9.244;2023-10-08T13:47:24;10.77;;;4.43;;
5718;SDS011;2884;47.734;9.244;2023-10-08T13:49:51;7.77;;;4.33;;
5718;SDS011;2884;47.734;9.244;2023-10-08T13:52:18;13.73;;;4.87;;
5718;SDS011;2884;47.734;9.244;2023-10-08T13:54:45;9.33;;;4.80;;
5718;SDS011;2884;47.734;9.244;2023-10-08T13:57:20;11.50;;;5.60;;
5718;SDS011;2884;47.734;9.244;2023-10-08T13:59:46;18.20;;;5.90;;
5718;SDS011;2884;47.734;9.244;2023-10-08T14:02:13;11.03;;;5.37;;
5718;SDS011;2884;47.734;9.244;2023-10-08T14:04:44;14.60;;;5.17;;
5718;SDS011;2884;47.734;9.244;2023-10-08T14:07:10;12.60;;;5.47;;
5718;SDS011;2884;47.734;9.244;2023-10-08T14:09:45;8.47;;;5.30;;
5718;SDS011;2884;47.734;9.244;2023-10-08T14:12:12;21.77;;;5.23;;
5718;SDS011;2884;47.734;9.244;2023-10-08T14:14:39;8.27;;;5.53;;
5718;SDS011;2884;47.734;9.244;2023-10-08T14:17:12;15.50;;;6.43;;
5718;SDS011;2884;47.734;9.244;2023-10-08T14:19:40;13.43;;;5.33;;
5718;SDS011;2884;47.734;9.244;2023-10-08T14:22:25;10.23;;;5.20;;
5718;SDS011;2884;47.734;9.244;2023-10-08T14:24:50;8.23;;;4.93;;
5718;SDS011;2884;47.734;9.244;2023-10-08T14:27:25;16.10;;;5.10;;
5718;SDS011;2884;47.734;9.244;2023-10-08T14:29:57;11.17;;;4.97;;
5718;SDS011;2884;47.734;9.244;2023-10-08T14:32:27;13.33;;;5.10;;
5718;SDS011;2884;47.734;9.244;2023-10-08T14:34:53;10.07;;;5.80;;
5718;SDS011;2884;47.734;9.244;2023-10-08T14:37:37;9.30;;;4.10;;
5718;SDS011;2884;47.734;9.244;2023-10-08T14:40:21;12.17;;;5.23;;
5718;SDS011;2884;47.734;9.244;2023-10-08T14:43:05;13.80;;;5.83;;
5718;SDS011;2884;47.734;9.244;2023-10-08T14:45:32;12.93;;;5.80;;
5718;SDS011;2884;47.734;9.244;2023-10-08T14:48:06;8.10;;;4.63;;
5718;SDS011;2884;47.734;9.244;2023-10-08T14:50:36;12.23;;;5.97;;
5718;SDS011;2884;47.734;9.244;2023-10-08T14:53:04;9.83;;;4.70;;
5718;SDS011;2884;47.734;9.244;2023-10-08T14:55:31;12.27;;;5.70;;
5718;SDS011;2884;47.734;9.244;2023-10-08T14:58:00;11.70;;;5.13;;
5718;SDS011;2884;47.734;9.244;2023-10-08T15:00:33;12.63;;;5.60;;
5718;SDS011;2884;47.734;9.244;2023-10-08T15:03:01;9.53;;;5.63;;
5718;SDS011;2884;47.734;9.244;2023-10-08T15:05:30;10.00;;;4.53;;
5718;SDS011;2884;47.734;9.244;2023-10-08T15:07:56;13.83;;;4.77;;
5718;SDS011;2884;47.734;9.244;2023-10-08T15:10:22;23.27;;;6.30;;
5718;SDS011;2884;47.734;9.244;2023-10-08T15:12:48;12.90;;;5.53;;
5718;SDS011;2884;47.734;9.244;2023-10-08T15:15:14;12.07;;;5.80;;
5718;SDS011;2884;47.734;9.244;2023-10-08T15:17:40;9.47;;;5.07;;
5718;SDS011;2884;47.734;9.244;2023-10-08T15:20:07;13.53;;;5.80;;
5718;SDS011;2884;47.734;9.244;2023-10-08T15:22:33;11.27;;;5.10;;
5718;SDS011;2884;47.734;9.244;2023-10-08T15:25:00;14.00;;;5.57;;
5718;SDS011;2884;47.734;9.244;2023-10-08T15:27:27;8.83;;;4.80;;
5718;SDS011;2884;47.734;9.244;2023-10-08T15:29:55;11.90;;;6.13;;
5718;SDS011;2884;47.734;9.244;2023-10-08T15:32:21;10.83;;;6.10;;
5718;SDS011;2884;47.734;9.244;2023-10-08T15:34:46;9.63;;;5.80;;
5718;SDS011;2884;47.734;9.244;2023-10-08T15:37:12;10.30;;;5.20;;
5718;SDS011;2884;47.734;9.244;2023-10-08T15:39:39;7.03;;;4.70;;
5718;SDS011;2884;47.734;9.244;2023-10-08T15:42:05;11.67;;;6.00;;
5718;SDS011;2884;47.734;9.244;2023-10-08T15:44:31;12.47;;;5.37;;
5718;SDS011;2884;47.734;9.244;2023-10-08T15:46:58;14.57;;;6.10;;
5718;SDS011;2884;47.734;9.244;2023-10-08T15:49:23;13.43;;;5.20;;